createdAt,value
2018-07-25T00:01:44.836Z,22.56
2018-07-25T00:04:12.014Z,22.57
2018-07-25T00:06:39.162Z,22.61
2018-07-25T00:09:07.314Z,22.55
2018-07-25T00:11:34.476Z,22.51
2018-07-25T00:14:01.630Z,22.42
2018-07-25T00:16:28.812Z,22.28
2018-07-25T00:18:55.933Z,22.24
2018-07-25T00:21:23.095Z,22.34
2018-07-25T00:23:50.813Z,22.32
2018-07-25T00:26:18.001Z,22.36
2018-07-25T00:28:45.138Z,22.32
2018-07-25T00:31:12.315Z,22.23
2018-07-25T00:33:39.471Z,22.21
2018-07-25T00:36:06.745Z,22.16
2018-07-25T00:38:33.977Z,22.13
2018-07-25T00:41:01.171Z,22.11
2018-07-25T00:43:28.390Z,22.14
2018-07-25T00:45:55.547Z,22.11
2018-07-25T00:48:22.699Z,22.00
2018-07-25T00:50:49.867Z,22.02
2018-07-25T00:53:17.163Z,22.01
2018-07-25T00:55:44.727Z,21.94
2018-07-25T00:58:11.552Z,21.93
2018-07-25T01:00:38.717Z,21.94
2018-07-25T01:03:05.904Z,21.94
2018-07-25T01:05:33.096Z,21.90
2018-07-25T01:08:00.276Z,21.87
2018-07-25T01:10:27.460Z,21.81
2018-07-25T01:12:54.642Z,21.85
2018-07-25T01:15:21.799Z,21.81
2018-07-25T01:17:48.978Z,21.81
2018-07-25T01:20:16.137Z,21.79
2018-07-25T01:22:43.312Z,21.76
2018-07-25T01:25:10.461Z,21.79
2018-07-25T01:27:37.600Z,21.70
2018-07-25T01:30:04.770Z,21.63
2018-07-25T01:32:31.899Z,21.62
2018-07-25T01:34:59.076Z,21.45
2018-07-25T01:37:26.227Z,21.45
2018-07-25T01:39:53.382Z,21.49
2018-07-25T01:42:20.527Z,21.46
2018-07-25T01:44:48.025Z,21.46
2018-07-25T01:47:15.239Z,21.47
2018-07-25T01:49:42.530Z,21.48
2018-07-25T01:52:09.681Z,21.45
2018-07-25T01:54:36.920Z,21.40
2018-07-25T01:57:04.395Z,21.32
2018-07-25T01:59:31.603Z,21.28
2018-07-25T02:01:59.388Z,21.30
2018-07-25T02:04:26.883Z,21.17
2018-07-25T02:06:54.059Z,21.23
2018-07-25T02:09:21.227Z,21.17
2018-07-25T02:11:48.373Z,21.16
2018-07-25T02:14:15.539Z,21.11
2018-07-25T02:16:42.697Z,21.09
2018-07-25T02:19:09.829Z,21.10
2018-07-25T02:21:37.073Z,21.07
2018-07-25T02:24:04.331Z,20.99
2018-07-25T02:26:31.511Z,20.96
2018-07-25T02:28:59.192Z,20.98
2018-07-25T02:31:26.516Z,20.93
2018-07-25T02:33:59.317Z,20.91
2018-07-25T02:36:26.524Z,20.93
2018-07-25T02:38:53.674Z,20.89
2018-07-25T02:41:20.899Z,20.80
2018-07-25T02:43:48.139Z,20.79
2018-07-25T02:46:15.280Z,20.76
2018-07-25T02:48:42.426Z,20.77
2018-07-25T02:51:09.592Z,20.77
2018-07-25T02:53:36.742Z,20.76
2018-07-25T02:56:04.516Z,20.68
2018-07-25T02:58:31.686Z,20.70
2018-07-25T03:00:58.836Z,20.72
2018-07-25T03:03:26.013Z,20.78
2018-07-25T03:05:53.220Z,20.77
2018-07-25T03:08:20.449Z,20.70
2018-07-25T03:10:54.649Z,20.70
2018-07-25T03:13:22.508Z,20.64
2018-07-25T03:15:58.862Z,20.62
2018-07-25T03:18:26.120Z,20.59
2018-07-25T03:20:53.299Z,20.59
2018-07-25T03:23:20.475Z,20.55
2018-07-25T03:25:47.809Z,20.52
2018-07-25T03:28:15.003Z,20.49
2018-07-25T03:30:42.712Z,20.47
2018-07-25T03:33:09.883Z,20.51
2018-07-25T03:35:37.047Z,20.53
2018-07-25T03:38:04.182Z,20.52
2018-07-25T03:40:31.381Z,20.53
2018-07-25T03:42:58.546Z,20.55
2018-07-25T03:45:25.704Z,20.50
2018-07-25T03:47:52.867Z,20.47
2018-07-25T03:50:20.097Z,20.35
2018-07-25T03:52:47.239Z,20.38
2018-07-25T03:55:15.076Z,20.41
2018-07-25T03:57:42.274Z,20.43
2018-07-25T04:00:09.439Z,20.44
2018-07-25T04:02:36.592Z,20.41
2018-07-25T04:05:03.802Z,20.43
2018-07-25T04:07:30.975Z,20.40
2018-07-25T04:09:58.121Z,20.41
2018-07-25T04:12:25.269Z,20.38
2018-07-25T04:14:52.438Z,20.38
2018-07-25T04:17:19.623Z,20.33
2018-07-25T04:19:46.818Z,20.37
2018-07-25T04:22:14.003Z,20.37
2018-07-25T04:24:41.173Z,20.42
2018-07-25T04:27:08.339Z,20.43
2018-07-25T04:29:35.515Z,20.44
2018-07-25T04:32:02.697Z,20.51
2018-07-25T04:34:29.840Z,20.53
2018-07-25T04:36:57.037Z,20.53
2018-07-25T04:39:24.210Z,20.53
2018-07-25T04:41:51.358Z,20.52
2018-07-25T04:44:18.533Z,20.52
2018-07-25T04:46:45.695Z,20.63
2018-07-25T04:49:12.890Z,20.67
2018-07-25T04:51:40.043Z,20.66
2018-07-25T04:54:07.308Z,20.73
2018-07-25T04:56:34.464Z,20.80
2018-07-25T04:59:01.654Z,20.85
2018-07-25T05:01:28.792Z,20.91
2018-07-25T05:03:56.060Z,20.97
2018-07-25T05:06:23.992Z,21.02
2018-07-25T05:08:51.175Z,21.05
2018-07-25T05:11:18.346Z,21.12
2018-07-25T05:13:46.187Z,21.14
2018-07-25T05:16:13.368Z,21.20
2018-07-25T05:18:40.551Z,21.33
2018-07-25T05:21:07.679Z,21.51
2018-07-25T05:23:34.868Z,21.70
2018-07-25T05:26:02.055Z,21.78
2018-07-25T05:28:29.234Z,21.77
2018-07-25T05:30:56.354Z,21.71
2018-07-25T05:33:23.496Z,21.69
2018-07-25T05:35:50.715Z,21.74
2018-07-25T05:38:18.531Z,21.62
2018-07-25T05:40:45.732Z,21.62
2018-07-25T05:43:12.888Z,21.72
2018-07-25T05:45:40.056Z,21.78
2018-07-25T05:48:07.225Z,21.92
2018-07-25T05:50:34.406Z,22.02
2018-07-25T05:53:01.564Z,22.03
2018-07-25T05:55:28.711Z,22.05
2018-07-25T05:57:55.942Z,22.05
2018-07-25T06:00:23.270Z,22.03
2018-07-25T06:02:50.516Z,22.03
2018-07-25T06:05:17.658Z,22.08
2018-07-25T06:07:44.823Z,22.06
2018-07-25T06:10:12.129Z,22.13
2018-07-25T06:12:39.317Z,22.09
2018-07-25T06:15:06.490Z,22.07
2018-07-25T06:17:33.704Z,22.14
2018-07-25T06:20:00.861Z,22.10
2018-07-25T06:22:28.059Z,22.17
2018-07-25T06:24:55.229Z,22.21
2018-07-25T06:27:22.409Z,22.27
2018-07-25T06:29:49.541Z,22.37
2018-07-25T06:32:16.689Z,22.43
2018-07-25T06:34:43.872Z,22.41
2018-07-25T06:37:11.062Z,22.39
2018-07-25T06:39:38.211Z,22.40
2018-07-25T06:42:06.125Z,22.41
2018-07-25T06:44:33.302Z,22.46
2018-07-25T06:47:00.477Z,22.53
2018-07-25T06:49:27.664Z,22.54
2018-07-25T06:51:54.812Z,22.59
2018-07-25T06:54:21.991Z,22.73
2018-07-25T06:56:49.142Z,22.75
2018-07-25T06:59:16.320Z,22.81
2018-07-25T07:01:43.509Z,22.96
2018-07-25T07:04:10.680Z,22.94
2018-07-25T07:06:37.905Z,22.96
2018-07-25T07:09:06.826Z,23.05
2018-07-25T07:11:33.984Z,23.09
2018-07-25T07:14:01.176Z,23.09
2018-07-25T07:16:28.334Z,23.14
2018-07-25T07:18:55.542Z,23.18
2018-07-25T07:21:22.755Z,23.41
2018-07-25T07:23:49.978Z,23.72
2018-07-25T07:26:17.128Z,23.95
2018-07-25T07:28:44.325Z,24.17
2018-07-25T07:31:11.495Z,24.26
2018-07-25T07:33:38.680Z,24.36
2018-07-25T07:36:05.821Z,24.41
2018-07-25T07:38:32.992Z,24.47
2018-07-25T07:41:00.167Z,24.53
2018-07-25T07:43:27.375Z,24.80
2018-07-25T07:45:54.531Z,25.01
2018-07-25T07:48:21.731Z,24.95
2018-07-25T07:50:48.934Z,24.95
2018-07-25T07:53:16.115Z,25.22
2018-07-25T07:55:43.307Z,25.20
2018-07-25T07:58:10.495Z,25.25
2018-07-25T08:00:37.711Z,25.51
2018-07-25T08:03:05.187Z,25.44
2018-07-25T08:05:33.045Z,25.44
2018-07-25T08:08:00.239Z,25.43
2018-07-25T08:10:27.454Z,25.41
2018-07-25T08:12:54.623Z,25.55
2018-07-25T08:15:21.807Z,25.47
2018-07-25T08:17:49.008Z,25.53
2018-07-25T08:20:16.231Z,25.54
2018-07-25T08:22:43.404Z,25.66
2018-07-25T08:25:10.705Z,25.62
2018-07-25T08:27:37.890Z,25.82
2018-07-25T08:30:05.338Z,25.81
2018-07-25T08:32:32.518Z,25.83
2018-07-25T08:34:59.683Z,25.95
2018-07-25T08:37:27.386Z,26.16
2018-07-25T08:39:54.576Z,26.04
2018-07-25T08:42:21.746Z,26.36
2018-07-25T08:44:48.912Z,26.18
2018-07-25T08:47:16.083Z,26.61
2018-07-25T08:49:43.258Z,26.69
2018-07-25T08:52:10.484Z,26.68
2018-07-25T08:54:37.622Z,26.82
2018-07-25T08:57:04.790Z,26.73
2018-07-25T08:59:31.960Z,26.80
2018-07-25T09:01:59.680Z,27.01
2018-07-25T09:04:27.996Z,26.76
2018-07-25T09:06:55.430Z,26.67
2018-07-25T09:09:22.631Z,26.99
2018-07-25T09:11:49.838Z,26.88
2018-07-25T09:14:17.005Z,26.76
2018-07-25T09:16:44.340Z,26.91
2018-07-25T09:19:11.501Z,27.05
2018-07-25T09:21:38.724Z,27.59
2018-07-25T09:24:05.902Z,27.99
2018-07-25T09:26:33.070Z,27.96
2018-07-25T09:29:00.263Z,27.96
2018-07-25T09:31:27.467Z,27.99
2018-07-25T09:33:54.787Z,27.99
2018-07-25T09:36:21.944Z,28.15
2018-07-25T09:38:49.184Z,28.19
2018-07-25T09:41:16.367Z,28.30
2018-07-25T09:43:43.605Z,28.24
2018-07-25T09:46:10.800Z,28.27
2018-07-25T09:48:38.011Z,28.39
2018-07-25T09:51:05.248Z,28.50
2018-07-25T09:53:32.441Z,28.40
2018-07-25T09:55:59.631Z,28.52
2018-07-25T09:58:26.939Z,28.64
2018-07-25T10:00:55.143Z,28.79
2018-07-25T10:03:22.352Z,29.09
2018-07-25T10:05:49.577Z,29.28
2018-07-25T10:08:17.295Z,29.40
2018-07-25T10:10:44.783Z,29.59
2018-07-25T10:13:11.926Z,29.82
2018-07-25T10:15:39.157Z,30.02
2018-07-25T10:18:06.387Z,29.99
2018-07-25T10:20:33.975Z,30.24
2018-07-25T10:23:01.089Z,30.18
2018-07-25T10:25:28.389Z,30.21
2018-07-25T10:27:55.624Z,30.25
2018-07-25T10:30:22.926Z,30.29
2018-07-25T10:32:50.163Z,30.31
2018-07-25T10:35:17.365Z,30.53
2018-07-25T10:37:44.539Z,30.29
2018-07-25T10:40:11.741Z,30.07
2018-07-25T10:42:39.016Z,30.10
2018-07-25T10:45:07.377Z,30.00
2018-07-25T10:47:34.608Z,30.11
2018-07-25T10:50:01.839Z,30.89
2018-07-25T10:52:29.073Z,30.82
2018-07-25T10:54:56.288Z,30.83
2018-07-25T10:57:23.528Z,30.70
2018-07-25T10:59:51.261Z,30.51
2018-07-25T11:02:18.659Z,30.65
2018-07-25T11:04:45.713Z,31.20
2018-07-25T11:07:12.944Z,31.68
2018-07-25T11:09:40.182Z,32.17
2018-07-25T11:12:07.379Z,31.99
2018-07-25T11:14:34.565Z,32.31
2018-07-25T11:17:01.812Z,32.55
2018-07-25T11:19:29.032Z,32.81
2018-07-25T11:21:56.239Z,32.98
2018-07-25T11:24:23.446Z,32.92
2018-07-25T11:26:50.626Z,33.32
2018-07-25T11:29:17.821Z,33.93
2018-07-25T11:31:45.007Z,33.97
2018-07-25T11:34:12.205Z,34.36
2018-07-25T11:36:39.394Z,34.77
2018-07-25T11:39:08.302Z,34.91
2018-07-25T11:41:35.614Z,34.93
2018-07-25T11:44:02.811Z,34.92
2018-07-25T11:46:30.007Z,35.26
2018-07-25T11:48:57.176Z,35.38
2018-07-25T11:51:24.424Z,35.57
2018-07-25T11:53:51.593Z,35.71
2018-07-25T11:56:18.775Z,35.79
2018-07-25T11:58:45.998Z,36.04
2018-07-25T12:01:13.285Z,36.17
2018-07-25T12:03:40.376Z,36.03
2018-07-25T12:06:07.539Z,36.10
2018-07-25T12:08:34.751Z,36.29
2018-07-25T12:11:01.973Z,36.55
2018-07-25T12:13:29.287Z,36.39
2018-07-25T12:15:56.497Z,35.57
2018-07-25T12:18:23.710Z,34.50
2018-07-25T12:20:50.910Z,34.27
2018-07-25T12:23:18.169Z,35.28
2018-07-25T12:25:45.389Z,36.02
2018-07-25T12:28:12.617Z,36.07
2018-07-25T12:30:39.817Z,36.40
2018-07-25T12:33:07.133Z,36.62
2018-07-25T12:35:34.347Z,36.97
2018-07-25T12:38:01.554Z,37.16
2018-07-25T12:40:28.786Z,37.42
2018-07-25T12:42:56.075Z,37.67
2018-07-25T12:45:23.194Z,37.68
2018-07-25T12:47:50.393Z,36.92
2018-07-25T12:50:17.615Z,37.20
2018-07-25T12:52:44.849Z,37.68
2018-07-25T12:55:12.110Z,38.67
2018-07-25T12:57:39.336Z,39.00
2018-07-25T13:00:07.430Z,38.15
2018-07-25T13:02:34.640Z,37.21
2018-07-25T13:05:01.826Z,37.26
2018-07-25T13:07:29.026Z,36.07
2018-07-25T13:09:56.270Z,36.11
2018-07-25T13:12:23.501Z,36.95
2018-07-25T13:14:50.713Z,37.68
2018-07-25T13:17:17.988Z,38.09
2018-07-25T13:19:45.184Z,37.91
2018-07-25T13:22:12.380Z,38.20
2018-07-25T13:24:39.614Z,38.27
2018-07-25T13:27:06.909Z,38.71
2018-07-25T13:29:34.117Z,39.04
2018-07-25T13:32:01.427Z,39.69
2018-07-25T13:34:28.627Z,40.02
2018-07-25T13:36:55.909Z,39.32
2018-07-25T13:39:23.079Z,38.59
2018-07-25T13:41:50.308Z,37.89
2018-07-25T13:44:17.505Z,37.94
2018-07-25T13:46:44.834Z,37.06
2018-07-25T13:49:12.129Z,37.35
2018-07-25T13:51:39.331Z,37.95
2018-07-25T13:54:06.578Z,38.36
2018-07-25T13:56:33.779Z,38.43
2018-07-25T13:59:00.995Z,38.57
2018-07-25T14:01:28.177Z,38.77
2018-07-25T14:03:55.535Z,38.80
2018-07-25T14:06:22.739Z,37.47
2018-07-25T14:08:49.948Z,38.10
2018-07-25T14:11:17.185Z,38.69
2018-07-25T14:13:44.409Z,38.88
2018-07-25T14:16:11.603Z,38.33
2018-07-25T14:18:38.825Z,37.35
2018-07-25T14:21:06.061Z,36.83
2018-07-25T14:23:33.390Z,35.94
2018-07-25T14:26:00.546Z,35.77
2018-07-25T14:28:27.750Z,35.79
2018-07-25T14:30:55.593Z,35.43
2018-07-25T14:33:22.806Z,35.34
2018-07-25T14:35:50.010Z,35.04
2018-07-25T14:38:17.258Z,34.65
2018-07-25T14:40:44.518Z,34.49
2018-07-25T14:43:11.762Z,34.46
2018-07-25T14:45:39.022Z,34.39
2018-07-25T14:48:06.289Z,34.34
2018-07-25T14:50:33.551Z,34.52
2018-07-25T14:53:00.769Z,34.70
2018-07-25T14:55:28.097Z,34.72
2018-07-25T14:57:55.335Z,34.86
2018-07-25T15:00:22.535Z,34.98
2018-07-25T15:02:49.817Z,35.48
2018-07-25T15:05:17.044Z,36.26
2018-07-25T15:07:44.250Z,36.76
2018-07-25T15:10:11.479Z,36.61
2018-07-25T15:12:42.873Z,37.08
2018-07-25T15:15:10.993Z,37.32
2018-07-25T15:17:38.299Z,37.62
2018-07-25T15:20:06.640Z,37.46
2018-07-25T15:22:33.855Z,37.30
2018-07-25T15:25:01.050Z,36.96
2018-07-25T15:27:28.328Z,35.53
2018-07-25T15:29:55.511Z,35.78
2018-07-25T15:32:22.795Z,35.88
2018-07-25T15:34:49.997Z,36.18
2018-07-25T15:37:17.246Z,35.89
2018-07-25T15:39:44.461Z,36.60
2018-07-25T15:42:11.658Z,37.22
2018-07-25T15:44:38.911Z,37.75
2018-07-25T15:47:06.115Z,38.41
2018-07-25T15:49:33.334Z,37.98
2018-07-25T15:52:00.554Z,37.59
2018-07-25T15:54:27.843Z,38.99
2018-07-25T15:56:55.053Z,39.64
2018-07-25T15:59:22.241Z,39.66
2018-07-25T16:01:49.479Z,39.20
2018-07-25T16:04:16.696Z,38.18
2018-07-25T16:06:43.881Z,39.11
2018-07-25T16:09:11.716Z,39.48
2018-07-25T16:11:39.566Z,39.76
2018-07-25T16:14:06.894Z,41.09
2018-07-25T16:16:34.098Z,40.07
2018-07-25T16:19:01.314Z,39.76
2018-07-25T16:21:28.504Z,37.74
2018-07-25T16:23:55.793Z,37.09
2018-07-25T16:26:23.007Z,37.54
2018-07-25T16:28:50.197Z,39.29
2018-07-25T16:31:17.471Z,40.54
2018-07-25T16:33:44.628Z,41.19
2018-07-25T16:36:11.819Z,40.11
2018-07-25T16:38:39.052Z,40.53
2018-07-25T16:41:06.231Z,38.88
2018-07-25T16:43:33.501Z,39.19
2018-07-25T16:46:00.843Z,39.41
2018-07-25T16:48:28.101Z,40.08
2018-07-25T16:50:55.265Z,40.52
2018-07-25T16:53:22.488Z,40.68
2018-07-25T16:55:49.651Z,39.25
2018-07-25T16:58:16.897Z,38.90
2018-07-25T17:00:44.123Z,36.93
2018-07-25T17:03:11.300Z,36.04
2018-07-25T17:05:38.747Z,35.66
2018-07-25T17:08:06.011Z,35.46
2018-07-25T17:10:33.222Z,35.18
2018-07-25T17:13:00.445Z,34.98
2018-07-25T17:15:27.647Z,35.02
2018-07-25T17:17:54.865Z,34.70
2018-07-25T17:20:22.099Z,34.03
2018-07-25T17:22:49.363Z,33.96
2018-07-25T17:25:16.771Z,33.71
2018-07-25T17:27:44.015Z,33.35
2018-07-25T17:30:11.249Z,32.71
2018-07-25T17:32:38.515Z,32.51
2018-07-25T17:35:06.552Z,32.35
2018-07-25T17:37:33.780Z,32.18
2018-07-25T17:40:00.980Z,31.62
2018-07-25T17:42:28.178Z,31.23
2018-07-25T17:44:55.448Z,30.96
2018-07-25T17:47:22.690Z,30.55
2018-07-25T17:49:49.930Z,30.25
2018-07-25T17:52:17.178Z,30.09
2018-07-25T17:54:44.372Z,30.10
2018-07-25T17:57:11.596Z,30.28
2018-07-25T17:59:38.868Z,30.09
2018-07-25T18:02:06.080Z,30.08
2018-07-25T18:04:33.398Z,30.04
2018-07-25T18:07:01.450Z,29.86
2018-07-25T18:09:28.723Z,30.15
2018-07-25T18:11:55.960Z,30.47
2018-07-25T18:14:23.208Z,30.16
2018-07-25T18:16:50.456Z,29.85
2018-07-25T18:19:17.711Z,30.00
2018-07-25T18:21:44.920Z,30.20
2018-07-25T18:24:12.419Z,30.06
2018-07-25T18:26:39.747Z,29.80
2018-07-25T18:29:06.996Z,29.61
2018-07-25T18:31:34.643Z,29.38
2018-07-25T18:34:01.924Z,29.24
2018-07-25T18:36:29.344Z,29.00
2018-07-25T18:38:56.586Z,28.88
2018-07-25T18:41:23.775Z,28.74
2018-07-25T18:43:51.004Z,28.69
2018-07-25T18:46:18.572Z,28.61
2018-07-25T18:48:45.822Z,28.54
2018-07-25T18:51:13.006Z,28.54
2018-07-25T18:53:40.243Z,28.63
2018-07-25T18:56:07.721Z,28.53
2018-07-25T18:58:35.035Z,28.43
2018-07-25T19:01:02.222Z,28.43
2018-07-25T19:03:29.571Z,28.30
2018-07-25T19:05:56.782Z,28.23
2018-07-25T19:08:23.974Z,28.12
2018-07-25T19:10:51.293Z,28.08
2018-07-25T19:13:24.023Z,27.95
2018-07-25T19:15:51.248Z,27.87
2018-07-25T19:18:18.516Z,27.78
2018-07-25T19:20:45.654Z,27.68
2018-07-25T19:23:12.834Z,27.61
2018-07-25T19:25:40.028Z,27.56
2018-07-25T19:28:07.226Z,27.51
2018-07-25T19:30:34.477Z,27.47
2018-07-25T19:33:01.679Z,27.47
2018-07-25T19:35:28.933Z,27.43
2018-07-25T19:37:56.149Z,27.43
2018-07-25T19:40:23.367Z,27.35
2018-07-25T19:42:50.649Z,27.34
2018-07-25T19:45:17.811Z,27.55
2018-07-25T19:47:44.998Z,27.75
2018-07-25T19:50:12.230Z,28.03
2018-07-25T19:52:39.441Z,28.34
2018-07-25T19:55:06.667Z,28.26
2018-07-25T19:57:33.873Z,27.99
2018-07-25T20:00:01.054Z,27.78
2018-07-25T20:02:28.287Z,27.83
2018-07-25T20:04:55.503Z,27.65
2018-07-25T20:07:22.772Z,27.47
2018-07-25T20:09:49.981Z,27.31
2018-07-25T20:12:17.217Z,27.17
2018-07-25T20:14:49.980Z,27.03
2018-07-25T20:17:17.214Z,26.98
2018-07-25T20:19:44.907Z,26.85
2018-07-25T20:22:12.764Z,26.82
2018-07-25T20:24:39.978Z,26.72
2018-07-25T20:27:07.202Z,26.71
2018-07-25T20:29:34.467Z,26.69
2018-07-25T20:32:01.672Z,26.62
2018-07-25T20:34:28.898Z,26.63
2018-07-25T20:36:56.077Z,26.59
2018-07-25T20:39:23.344Z,26.58
2018-07-25T20:41:50.569Z,26.57
2018-07-25T20:44:17.789Z,26.62
2018-07-25T20:46:45.012Z,26.60
2018-07-25T20:49:13.442Z,26.65
2018-07-25T20:51:40.649Z,26.59
2018-07-25T20:54:07.846Z,26.60
2018-07-25T20:56:35.108Z,26.53
2018-07-25T20:59:02.333Z,26.46
2018-07-25T21:01:29.578Z,26.43
2018-07-25T21:03:56.817Z,26.35
2018-07-25T21:06:24.557Z,26.20
2018-07-25T21:08:51.874Z,26.18
2018-07-25T21:11:19.269Z,26.04
2018-07-25T21:13:46.474Z,26.00
2018-07-25T21:16:13.759Z,25.91
2018-07-25T21:18:40.889Z,25.85
2018-07-25T21:21:08.160Z,25.70
2018-07-25T21:23:35.380Z,25.60
2018-07-25T21:26:02.629Z,25.60
2018-07-25T21:28:29.801Z,25.54
2018-07-25T21:30:57.041Z,25.56
2018-07-25T21:33:24.295Z,25.61
2018-07-25T21:35:51.507Z,25.67
2018-07-25T21:38:18.887Z,25.68
2018-07-25T21:40:46.093Z,25.68
2018-07-25T21:43:13.309Z,25.57
2018-07-25T21:45:40.769Z,25.58
2018-07-25T21:48:07.983Z,25.51
2018-07-25T21:50:35.200Z,25.48
2018-07-25T21:53:02.428Z,25.45
2018-07-25T21:55:29.712Z,25.41
2018-07-25T21:57:56.921Z,25.35
2018-07-25T22:00:24.193Z,25.35
2018-07-25T22:02:51.452Z,25.30
2018-07-25T22:05:18.640Z,25.37
2018-07-25T22:07:46.411Z,25.38
2018-07-25T22:10:13.617Z,25.44
2018-07-25T22:12:41.121Z,25.45
2018-07-25T22:15:09.416Z,25.39
2018-07-25T22:17:36.848Z,25.31
2018-07-25T22:20:05.234Z,25.29
2018-07-25T22:22:32.397Z,25.17
2018-07-25T22:24:59.604Z,25.10
2018-07-25T22:27:26.757Z,24.99
2018-07-25T22:29:53.901Z,24.94
2018-07-25T22:32:21.076Z,24.87
2018-07-25T22:34:48.297Z,24.91
2018-07-25T22:37:15.631Z,24.94
2018-07-25T22:39:43.305Z,24.92
2018-07-25T22:42:10.620Z,24.83
2018-07-25T22:44:37.833Z,24.76
2018-07-25T22:47:05.045Z,24.67
2018-07-25T22:49:32.236Z,24.62
2018-07-25T22:51:59.436Z,24.54
2018-07-25T22:54:26.603Z,24.49
2018-07-25T22:56:53.885Z,24.47
2018-07-25T22:59:21.064Z,24.47
2018-07-25T23:01:48.254Z,24.34
2018-07-25T23:04:15.440Z,24.29
2018-07-25T23:06:42.663Z,24.31
2018-07-25T23:09:10.806Z,24.27
2018-07-25T23:11:38.316Z,24.24
2018-07-25T23:14:05.531Z,24.18
2018-07-25T23:16:32.719Z,24.14
2018-07-25T23:18:59.930Z,24.04
2018-07-25T23:21:27.608Z,24.03
2018-07-25T23:23:54.772Z,23.94
2018-07-25T23:26:21.984Z,23.86
2018-07-25T23:28:49.168Z,23.84
2018-07-25T23:31:16.576Z,23.87
2018-07-25T23:33:43.770Z,23.80
2018-07-25T23:36:10.970Z,23.77
2018-07-25T23:38:38.193Z,23.67
2018-07-25T23:41:05.447Z,23.64
2018-07-25T23:43:32.686Z,23.60
2018-07-25T23:46:00.476Z,23.47
2018-07-25T23:48:27.698Z,23.40
2018-07-25T23:50:54.995Z,23.40
2018-07-25T23:53:22.260Z,23.32
2018-07-25T23:55:49.487Z,23.35
2018-07-25T23:58:16.674Z,23.35
